USTR 090930Z 26004MPS CAVOK M06/M10 Q1013 R30/420355 R21/350047 NOSIG
QNH:(hPa/inHg/mmHg)1013 / 29.91 / 760
QFE:(hPa/inHg/mmHg)999 / 29.50 / 749
Temperature-6
Dew Point-10
Visibility> 10000
WeatherCAVOK
Cloud Cover
Transition Height700 m./2700 ft.
Transition LevelFL40
SQUAWK